Chisholm Hibbing Airport
KHIB : now visible

Airfield :











YOU CAN JOIN US ON...

 
LOGIN :

Register | Disclaimer

   EN    FR    IT 

 









Legend :    VFR   Marginal VFR   IFR   Intensive IFR   Very Intensive IFR
Visi :
Ceiling :
>= 8 km
>= 3000ft
5 to 8 km
1000 to 3000 ft
1500m to 5 km
500 to 1000 ft
800 to 1500m
200 to 500 ft
< 800m
< 200 ft
Symbols :   Thunderstorms  Fog  Heavy snow  Heavy precipitations  Wind > 20 kt






- Airport Elevation : 1354 ft
- IATA code : HIB


KHIB - Chisholm Hibbing

CURRENT METAR :
  • 011453Z AUTO 00000KT 8SM OVC070 M26/M29 A3007 RMK AO2 SLP233 T12611294 53006

EXPIRED METARs :
  • 011353Z AUTO 00000KT 9SM OVC065 M30/M34 A3006 RMK AO2 SLP231 T13001344
  • 011253Z AUTO 00000KT 10SM CLR M32/M36 A3006 RMK AO2 SLP229 T13171361

TAF KHIB
Valid from the 01 at 12:00 until the 02 at 12:00 UTC


011143Z 0112/0212 VRB03KT P6SM SCT120
FM011400 VRB04KT P6SM BKN060
FM012100 26006KT P6SM BKN045
FM020500 26005KT P6SM BKN025
FM020700 30006KT 6SM -SN BR OVC025
FM021000 32012KT P6SM OVC025
KZMP FIR / North America



MET'MAP, your aeronautical weather chart ! - Copyright ORBIFLY December 2007 - Disclaimer

ORBIFLY MET'MAP TEAM :

Programming & Development : Alexandra Zaïnal
Original concept : Baudouin d'Aumeries
Technical & hardware support : Manuel Goepfert
Assistance : Marc-Olivier Méhu




SOURCES & CREDITS :

   NOAA       Earth
Advisory